Aeroporto :
LOGIN :

Iscrizione | Disclaimer

   EN    FR    IT 

 










Sommario :    VFR   VFR Marginale   IFR   IFR Intensivo   IFR Molto Intensivo
Visibilità : 
Base nubi : 
>= 8 km
>= 3000ft
5 / 8 km
1000 / 3000 ft
1500m / 5 km
500 / 1000 ft
800 / 1500m
200 / 500 ft
< 800m
< 200 ft
Simboli :   Temporali  Nebbia  Neve Forte  Precipitazioni Forti  Vento > 20 kt
SIGMETs :   Varie  Temporali  Ghiacco  Turbolenza  Onda orograficha  Ceneri Vulcaniche






- Altitudine del aeroporto : 302 ft


LFPM - Melun Villaroche

ULTIMO METAR :
  • 162130Z AUTO 13003KT CAVOK 19/18 Q1010

METARs OBSOLETI :
  • 162100Z AUTO 12004KT 090V150 9999 ///CB 19/17 Q1009
  • 162030Z AUTO 12004KT 9999 //////CB 19/18 Q1009
  • 162000Z AUTO 09004KT 060V130 CAVOK 19/17 Q1009
  • 161930Z AUTO VRB02KT CAVOK 19/17 Q1009
  • 161900Z AUTO 01003KT 330V080 CAVOK 19/17 Q1009

Previsioni scadute.
ATIS : +33 1 64 14 28 44



MetMap, La meteo Aeronautica in un colpo d'occhio ! - Copyright ORBIFLY Dicembre 2007 - Disclaimer

ORBIFLY MET'MAP TEAM :

Programmazione e sviluppo : Alexandra Zaïnal
Concezione : Baudouin d'Aumeries
Supporto tecnico e logistico : Manuel Goepfert
Aiuto : Marc-Olivier Méhu
Aiuto per la traduzione : Arnaldo La Scala




FONTI E CREDITI :

   NOAA